Time;durP1;ratioP1;P1;durP2;ratioP2;P2;SDS_P1;SDS_P2;PMS_P1;PMS_P2;Temp;Humidity;BMP_temperature;BMP_pressure;BME280_temperature;BME280_humidity;BME280_pressure;Samples;Min_cycle;Max_cycle;Signal;HPM_P1;HPM_P2
2023/10/21 00:00:03;;;;;;;20.70;11.50;;;;;;;16.27;100.00;99937.85;109431;1254;73750;-74
2023/10/21 00:02:37;;;;;;;17.20;11.50;;;;;;;16.29;100.00;99936.09;109455;1254;63626;-73
2023/10/21 00:05:06;;;;;;;24.50;12.70;;;;;;;16.30;100.00;99933.02;109423;1253;72505;-75
2023/10/21 00:07:33;;;;;;;17.00;10.60;;;;;;;16.31;100.00;99934.10;109438;1253;60789;-74
2023/10/21 00:10:01;;;;;;;24.50;12.10;;;;;;;16.34;100.00;99928.94;109472;1258;58176;-74
2023/10/21 00:12:28;;;;;;;20.10;11.40;;;;;;;16.35;100.00;99928.33;109436;1253;72670;-75
2023/10/21 00:14:56;;;;;;;21.60;12.10;;;;;;;16.35;100.00;99931.80;109475;1253;62428;-75
2023/10/21 00:17:25;;;;;;;17.90;11.50;;;;;;;16.36;100.00;99931.02;109455;1254;71740;-74
2023/10/21 00:19:52;;;;;;;19.70;12.00;;;;;;;16.38;100.00;99928.86;109487;1253;61679;-74
2023/10/21 00:22:19;;;;;;;18.80;11.30;;;;;;;16.39;100.00;99920.70;109482;1254;58818;-74
2023/10/21 00:24:47;;;;;;;21.20;13.00;;;;;;;16.39;100.00;99916.08;109464;1254;73158;-74
2023/10/21 00:27:14;;;;;;;19.60;12.10;;;;;;;16.40;100.00;99918.26;109466;1253;63617;-76
2023/10/21 00:29:42;;;;;;;22.90;10.90;;;;;;;16.41;100.00;99924.23;109392;1253;71139;-75
2023/10/21 00:32:09;;;;;;;22.00;12.00;;;;;;;16.41;100.00;99923.30;109420;1254;60546;-74
2023/10/21 00:34:40;;;;;;;23.90;12.00;;;;;;;16.42;100.00;99924.08;109480;1254;59240;-74
2023/10/21 00:37:08;;;;;;;17.50;12.60;;;;;;;16.42;100.00;99929.41;109467;1254;73919;-73
2023/10/21 00:39:36;;;;;;;18.50;11.50;;;;;;;16.43;100.00;99926.30;109458;1253;63788;-74
2023/10/21 00:42:04;;;;;;;22.50;12.20;;;;;;;16.43;100.00;99929.65;109447;1255;72725;-75
2023/10/21 00:44:32;;;;;;;21.50;11.20;;;;;;;16.44;100.00;99930.81;109636;1251;60394;-75
2023/10/21 00:46:59;;;;;;;17.80;11.50;;;;;;;16.45;100.00;99938.47;109659;1253;60294;-74
2023/10/21 00:49:31;;;;;;;20.00;11.50;;;;;;;16.47;100.00;99946.70;109523;1251;73863;-75
2023/10/21 00:51:59;;;;;;;25.40;12.20;;;;;;;16.51;100.00;99944.80;109655;1251;62638;-74
2023/10/21 00:54:26;;;;;;;23.40;14.40;;;;;;;16.53;100.00;99947.53;109649;1253;71432;-74
2023/10/21 00:56:54;;;;;;;22.70;12.70;;;;;;;16.56;100.00;99942.87;109587;1254;60349;-75
2023/10/21 00:59:22;;;;;;;18.10;11.70;;;;;;;16.57;100.00;99936.29;109663;1253;60053;-74
2023/10/21 01:01:50;;;;;;;17.50;11.40;;;;;;;16.59;100.00;99935.89;109620;1254;73798;-74
2023/10/21 01:04:17;;;;;;;15.70;9.90;;;;;;;16.62;100.00;99941.80;109655;1252;64175;-74
2023/10/21 01:06:45;;;;;;;24.80;11.00;;;;;;;16.66;100.00;99945.77;109635;1253;70726;-75
2023/10/21 01:09:15;;;;;;;21.30;11.10;;;;;;;16.70;100.00;99938.86;109621;1253;60388;-73
2023/10/21 01:11:43;;;;;;;18.80;10.80;;;;;;;16.75;100.00;99931.67;109645;1251;59953;-75
2023/10/21 01:14:11;;;;;;;22.90;11.40;;;;;;;16.80;100.00;99934.23;109631;1251;72683;-74
2023/10/21 01:16:38;;;;;;;21.00;10.60;;;;;;;16.86;100.00;99939.70;109671;1254;62452;-74
2023/10/21 01:19:07;;;;;;;24.00;12.00;;;;;;;16.90;100.00;99937.48;109468;1252;71462;-72
2023/10/21 01:21:34;;;;;;;17.40;11.50;;;;;;;16.94;100.00;99942.26;109621;1253;61142;-74
2023/10/21 01:24:02;;;;;;;20.10;13.70;;;;;;;16.96;100.00;99939.54;109653;1251;59973;-74
2023/10/21 01:26:29;;;;;;;19.40;11.40;;;;;;;16.99;100.00;99934.46;109632;1254;73855;-74
2023/10/21 01:28:56;;;;;;;21.10;11.90;;;;;;;17.02;100.00;99940.61;109640;1251;62400;-74
2023/10/21 01:31:24;;;;;;;22.00;12.30;;;;;;;17.05;100.00;99939.98;109623;1254;72695;-75
2023/10/21 01:33:51;;;;;;;25.90;12.20;;;;;;;17.07;100.00;99936.00;109623;1254;61619;-75
2023/10/21 01:36:19;;;;;;;19.00;12.30;;;;;;;17.06;100.00;99937.38;109706;1251;58805;-75
2023/10/21 01:38:47;;;;;;;16.70;11.90;;;;;;;17.06;100.00;99925.39;109621;1251;73825;-76
2023/10/21 01:41:15;;;;;;;23.30;12.90;;;;;;;17.06;100.00;99930.46;109536;1251;62228;-74
2023/10/21 01:43:43;;;;;;;20.00;11.40;;;;;;;17.05;100.00;99925.98;109656;1251;72906;-74
2023/10/21 01:46:10;;;;;;;18.70;12.30;;;;;;;17.04;100.00;99929.29;109631;1252;61638;-75
2023/10/21 01:48:38;;;;;;;21.70;12.50;;;;;;;17.03;100.00;99923.49;109644;1254;58785;-75
2023/10/21 01:51:05;;;;;;;17.70;12.00;;;;;;;17.05;100.00;99919.60;109664;1251;73871;-74
2023/10/21 01:53:32;;;;;;;16.20;11.60;;;;;;;17.09;100.00;99933.93;109625;1251;62459;-74
2023/10/21 01:56:01;;;;;;;17.90;11.90;;;;;;;17.09;100.00;99941.79;109626;1251;70816;-74
2023/10/21 01:58:29;;;;;;;19.50;11.70;;;;;;;17.11;100.00;99957.67;109655;1254;60406;-75
2023/10/21 02:00:57;;;;;;;22.20;12.50;;;;;;;17.12;100.00;99959.02;109652;1251;58807;-75
2023/10/21 02:03:26;;;;;;;28.70;19.40;;;;;;;17.13;100.00;99960.89;109518;1257;72802;-74
2023/10/21 02:05:54;;;;;;;19.40;12.80;;;;;;;17.16;100.00;99962.33;109512;1251;62330;-74
2023/10/21 02:08:22;;;;;;;19.50;12.80;;;;;;;17.15;100.00;99956.27;109480;1251;72647;-75
2023/10/21 02:10:49;;;;;;;22.70;13.30;;;;;;;17.12;100.00;99954.39;109477;1252;60156;-74
2023/10/21 02:13:19;;;;;;;20.50;12.90;;;;;;;17.11;100.00;99957.73;109641;1251;60444;-74
2023/10/21 02:15:46;;;;;;;20.90;13.00;;;;;;;17.08;100.00;99955.18;109602;1251;72615;-75
2023/10/21 02:18:14;;;;;;;21.10;12.60;;;;;;;17.05;100.00;99943.80;109627;1251;62232;-74
2023/10/21 02:20:44;;;;;;;19.50;12.70;;;;;;;17.02;100.00;99932.63;109569;1252;72631;-74
2023/10/21 02:23:11;;;;;;;20.40;11.90;;;;;;;16.98;100.00;99923.50;109619;1254;60427;-75
2023/10/21 02:25:38;;;;;;;20.30;9.80;;;;;;;16.94;100.00;99922.42;109641;1251;59150;-74
2023/10/21 02:28:06;;;;;;;17.70;9.70;;;;;;;16.89;100.00;99920.42;109527;1251;71971;-74
2023/10/21 02:30:34;;;;;;;16.40;10.00;;;;;;;16.87;100.00;99922.42;109596;1251;62447;-75
2023/10/21 02:33:03;;;;;;;24.80;10.60;;;;;;;16.86;100.00;99927.65;109635;1251;71426;-74
2023/10/21 02:35:34;;;;;;;18.40;9.30;;;;;;;16.86;100.00;99926.65;109630;1253;60667;-74
2023/10/21 02:38:01;;;;;;;15.20;8.90;;;;;;;16.85;100.00;99936.02;109470;1251;58557;-75
2023/10/21 02:40:29;;;;;;;15.50;11.40;;;;;;;16.87;100.00;99935.69;109603;1251;73792;-75
2023/10/21 02:42:56;;;;;;;22.50;13.30;;;;;;;16.89;100.00;99932.11;109653;1251;62446;-76
2023/10/21 02:45:24;;;;;;;20.90;11.30;;;;;;;16.92;100.00;99929.17;109576;1251;72651;-74
2023/10/21 02:47:52;;;;;;;19.70;9.90;;;;;;;16.94;100.00;99921.89;109579;1253;60289;-75
2023/10/21 02:50:19;;;;;;;21.60;13.70;;;;;;;16.95;100.00;99923.60;109682;1251;58828;-75
2023/10/21 02:52:49;;;;;;;20.40;8.50;;;;;;;16.96;100.00;99923.11;109633;1251;73724;-74
2023/10/21 02:55:17;;;;;;;17.90;9.00;;;;;;;16.95;100.00;99917.02;109629;1254;63600;-74
2023/10/21 02:57:44;;;;;;;15.60;8.20;;;;;;;16.96;100.00;99916.23;109605;1251;71194;-75
2023/10/21 03:00:21;;;;;;;16.70;7.80;;;;;;;16.97;100.00;99917.95;109496;1254;62100;-75
2023/10/21 03:02:48;;;;;;;12.90;7.50;;;;;;;16.97;100.00;99916.00;109612;1251;60018;-75
2023/10/21 03:05:16;;;;;;;16.30;7.80;;;;;;;16.97;100.00;99917.77;109617;1251;73928;-75
2023/10/21 03:07:44;;;;;;;15.20;8.10;;;;;;;16.95;100.00;99917.80;109630;1251;62772;-74
2023/10/21 03:10:11;;;;;;;29.80;19.70;;;;;;;16.93;100.00;99910.73;109491;1251;72735;-74
2023/10/21 03:12:39;;;;;;;15.00;7.40;;;;;;;16.92;100.00;99900.98;109613;1254;61673;-74
2023/10/21 03:15:10;;;;;;;18.50;9.40;;;;;;;16.88;100.00;99895.85;109647;1251;59158;-73
2023/10/21 03:17:38;;;;;;;15.10;8.70;;;;;;;16.86;100.00;99891.16;109520;1251;74013;-75
2023/10/21 03:20:06;;;;;;;15.10;7.20;;;;;;;16.82;100.00;99885.33;109688;1251;62255;-74
2023/10/21 03:22:33;;;;;;;17.50;8.00;;;;;;;16.80;100.00;99885.34;109651;1251;72786;-74
2023/10/21 03:25:02;;;;;;;13.90;7.30;;;;;;;16.78;100.00;99891.66;109596;1251;60748;-74
2023/10/21 03:27:29;;;;;;;15.10;7.90;;;;;;;16.76;100.00;99881.60;109703;1254;60026;-74
2023/10/21 03:29:57;;;;;;;18.80;7.60;;;;;;;16.75;100.00;99871.30;109617;1251;73861;-77
2023/10/21 03:32:24;;;;;;;19.50;7.90;;;;;;;16.74;100.00;99864.13;109655;1250;63543;-75
2023/10/21 03:34:52;;;;;;;14.10;7.10;;;;;;;16.72;100.00;99862.11;109661;1251;71665;-75
2023/10/21 03:37:22;;;;;;;16.80;8.60;;;;;;;16.71;100.00;99860.94;109641;1254;60420;-74
2023/10/21 03:39:49;;;;;;;17.70;8.30;;;;;;;16.72;100.00;99861.91;109684;1251;58983;-75
2023/10/21 03:42:17;;;;;;;14.30;8.00;;;;;;;16.74;100.00;99866.05;109599;1251;73852;-75
2023/10/21 03:44:44;;;;;;;14.90;7.90;;;;;;;16.76;100.00;99877.23;109701;1251;62909;-75
2023/10/21 03:47:12;;;;;;;17.20;7.80;;;;;;;16.76;100.00;99886.17;109671;1251;72683;-74
2023/10/21 03:49:39;;;;;;;15.00;8.10;;;;;;;16.77;100.00;99893.66;109783;1251;60269;-74
2023/10/21 03:52:07;;;;;;;23.30;7.60;;;;;;;16.78;100.00;99884.41;109668;1251;58794;-74
2023/10/21 03:54:34;;;;;;;17.70;8.20;;;;;;;16.79;100.00;99882.60;109597;1251;74093;-75
2023/10/21 03:57:02;;;;;;;14.80;7.50;;;;;;;16.78;100.00;99891.63;109611;1251;62322;-74
2023/10/21 03:59:30;;;;;;;22.90;9.30;;;;;;;16.80;100.00;99900.86;109660;1251;70530;-74
2023/10/21 04:01:58;;;;;;;14.60;7.60;;;;;;;16.84;100.00;99902.48;109619;1251;60491;-75
2023/10/21 04:04:25;;;;;;;14.60;8.70;;;;;;;16.88;100.00;99893.56;109627;1251;59920;-75
2023/10/21 04:06:53;;;;;;;18.50;8.20;;;;;;;16.91;100.00;99886.88;109685;1251;73814;-75
2023/10/21 04:09:20;;;;;;;11.90;7.40;;;;;;;16.91;100.00;99890.08;109667;1251;63905;-74
2023/10/21 04:11:48;;;;;;;14.00;7.80;;;;;;;16.91;100.00;99891.50;109625;1251;71201;-74
2023/10/21 04:14:16;;;;;;;14.30;7.70;;;;;;;16.90;100.00;99896.86;109622;1253;60619;-75
2023/10/21 04:16:44;;;;;;;20.70;9.20;;;;;;;16.91;100.00;99896.95;109628;1251;58966;-74
2023/10/21 04:19:12;;;;;;;20.80;10.30;;;;;;;16.90;100.00;99904.71;109648;1256;72606;-74
2023/10/21 04:21:40;;;;;;;12.60;8.20;;;;;;;16.88;100.00;99908.06;109627;1251;63608;-74
2023/10/21 04:24:08;;;;;;;15.60;8.30;;;;;;;16.87;100.00;99911.63;109665;1251;72937;-75
2023/10/21 04:26:35;;;;;;;13.80;9.50;;;;;;;16.86;100.00;99912.45;109617;1251;61856;-74
2023/10/21 04:29:04;;;;;;;19.80;10.40;;;;;;;16.89;100.00;99913.97;109641;1251;60103;-75
2023/10/21 04:31:34;;;;;;;16.50;9.20;;;;;;;16.90;100.00;99919.98;109696;1250;72616;-74
2023/10/21 04:34:01;;;;;;;17.50;10.20;;;;;;;16.93;100.00;99929.60;109638;1251;62276;-74
2023/10/21 04:36:28;;;;;;;16.50;7.90;;;;;;;16.96;100.00;99926.86;109652;1251;72702;-75
2023/10/21 04:38:56;;;;;;;16.00;9.20;;;;;;;17.01;100.00;99935.05;109610;1251;61628;-73
2023/10/21 04:41:24;;;;;;;23.40;8.60;;;;;;;17.04;100.00;99938.79;109657;1251;58794;-74
2023/10/21 04:43:52;;;;;;;16.70;8.40;;;;;;;17.08;100.00;99937.13;109587;1251;73808;-74
2023/10/21 04:46:19;;;;;;;18.40;10.00;;;;;;;17.12;100.00;99928.29;109608;1251;62420;-75
2023/10/21 04:48:47;;;;;;;17.10;9.80;;;;;;;17.15;100.00;99925.18;109661;1251;72737;-73
2023/10/21 04:51:14;;;;;;;18.80;10.40;;;;;;;17.17;100.00;99918.96;109592;1251;62425;-74
2023/10/21 04:53:42;;;;;;;19.30;9.60;;;;;;;17.18;100.00;99918.88;109699;1251;60013;-75
2023/10/21 04:56:10;;;;;;;14.30;8.10;;;;;;;17.20;100.00;99923.63;109594;1251;73894;-74
2023/10/21 04:58:39;;;;;;;15.10;9.30;;;;;;;17.21;100.00;99929.70;109634;1251;63881;-74
2023/10/21 05:01:08;;;;;;;18.40;9.80;;;;;;;17.22;100.00;99938.98;109580;1251;72127;-74
2023/10/21 05:03:36;;;;;;;13.40;9.30;;;;;;;17.23;100.00;99945.72;109585;1251;61725;-73
2023/10/21 05:06:04;;;;;;;19.90;9.70;;;;;;;17.25;100.00;99947.48;109631;1251;58831;-74
2023/10/21 05:08:33;;;;;;;19.80;9.40;;;;;;;17.25;100.00;99950.84;109590;1251;74111;-75
2023/10/21 05:11:00;;;;;;;17.20;9.70;;;;;;;17.26;100.00;99952.33;109683;1251;63619;-73
2023/10/21 05:13:28;;;;;;;23.20;10.30;;;;;;;17.29;100.00;99951.90;109629;1251;72714;-74
2023/10/21 05:15:55;;;;;;;19.40;11.30;;;;;;;17.29;100.00;99951.84;109651;1251;61731;-74
2023/10/21 05:18:23;;;;;;;25.30;11.30;;;;;;;17.29;100.00;99948.92;109699;1251;58709;-75
2023/10/21 05:20:50;;;;;;;19.20;11.60;;;;;;;17.30;100.00;99937.14;109631;1251;73804;-75
2023/10/21 05:23:20;;;;;;;22.60;12.60;;;;;;;17.30;100.00;99942.11;109663;1251;63616;-76
2023/10/21 05:25:47;;;;;;;18.80;12.70;;;;;;;17.27;100.00;99938.50;109631;1251;72732;-76
2023/10/21 05:28:15;;;;;;;19.80;12.30;;;;;;;17.27;100.00;99937.20;109591;1253;60682;-75
2023/10/21 05:30:43;;;;;;;19.00;12.70;;;;;;;17.27;100.00;99932.77;109709;1253;58776;-74
2023/10/21 05:33:10;;;;;;;22.20;13.10;;;;;;;17.27;100.00;99934.89;109610;1250;73844;-72
2023/10/21 05:35:39;;;;;;;18.80;13.00;;;;;;;17.27;100.00;99937.70;109637;1250;63663;-74
2023/10/21 05:38:07;;;;;;;26.90;14.40;;;;;;;17.26;100.00;99942.80;109586;1251;72807;-74
2023/10/21 05:40:35;;;;;;;25.50;14.80;;;;;;;17.24;100.00;99947.42;109639;1251;60449;-74
2023/10/21 05:43:02;;;;;;;23.30;14.60;;;;;;;17.22;100.00;99953.07;109591;1251;60212;-75
2023/10/21 05:46:39;;;;;;;24.40;15.50;;;;;;;17.25;100.00;99956.56;102717;1294;615761;-75
2023/10/21 05:49:06;;;;;;;27.10;16.30;;;;;;;17.23;100.00;99965.92;104987;1268;61995;-75
2023/10/21 05:51:33;;;;;;;26.30;15.90;;;;;;;17.24;100.00;99964.78;104966;1266;60349;-75
2023/10/21 05:54:00;;;;;;;23.50;15.40;;;;;;;17.23;100.00;99970.17;105015;1265;72452;-73
2023/10/21 05:56:28;;;;;;;27.10;17.80;;;;;;;17.21;100.00;99967.69;104964;1268;65103;-75
2023/10/21 05:58:55;;;;;;;27.70;17.30;;;;;;;17.20;100.00;99965.99;104811;1263;320908;-74
2023/10/21 06:01:23;;;;;;;27.10;16.30;;;;;;;17.22;100.00;99966.54;105228;1265;62059;-74
2023/10/21 06:03:50;;;;;;;27.30;18.80;;;;;;;17.24;100.00;99967.09;105157;1263;60124;-77
2023/10/21 06:06:17;;;;;;;27.70;17.70;;;;;;;17.26;100.00;99963.44;105240;1265;72459;-75
2023/10/21 06:08:45;;;;;;;27.00;18.20;;;;;;;17.30;100.00;99955.86;105146;1265;63915;-74
2023/10/21 06:11:14;;;;;;;27.80;17.10;;;;;;;17.34;100.00;99954.86;105082;1263;71151;-77
2023/10/21 06:13:41;;;;;;;33.10;19.70;;;;;;;17.39;100.00;99953.16;105134;1265;61981;-77
2023/10/21 06:16:08;;;;;;;28.00;18.70;;;;;;;17.44;100.00;99949.34;105016;1263;60352;-75
2023/10/21 06:18:36;;;;;;;25.40;17.10;;;;;;;17.48;100.00;99948.09;105022;1265;73048;-77
2023/10/21 06:21:06;;;;;;;33.20;17.10;;;;;;;17.51;100.00;99950.95;104973;1263;62677;-78
2023/10/21 06:23:32;;;;;;;23.40;17.00;;;;;;;17.53;100.00;99945.91;105068;1264;72688;-77
2023/10/21 06:25:59;;;;;;;27.30;15.30;;;;;;;17.59;100.00;99950.13;105074;1265;62327;-73
2023/10/21 06:28:26;;;;;;;23.60;15.10;;;;;;;17.63;100.00;99945.48;105210;1263;60205;-76
2023/10/21 06:30:53;;;;;;;31.00;16.00;;;;;;;17.65;100.00;99944.91;105036;1263;73116;-75
2023/10/21 06:33:20;;;;;;;23.30;15.10;;;;;;;17.68;100.00;99939.53;105261;1265;64225;-77
2023/10/21 06:35:49;;;;;;;27.20;13.90;;;;;;;17.68;100.00;99941.63;105022;1265;71346;-78
2023/10/21 06:38:16;;;;;;;28.00;15.50;;;;;;;17.69;100.00;99949.30;105294;1265;60557;-75
2023/10/21 06:40:44;;;;;;;24.40;15.40;;;;;;;17.73;100.00;99948.05;105974;1251;60627;-76
2023/10/21 06:43:31;;;;;;;21.70;14.40;;;;;;;17.78;100.00;99949.98;105875;1255;72105;-77
2023/10/21 06:45:58;;;;;;;18.80;13.90;;;;;;;17.83;100.00;99956.95;106002;1254;63666;-77
2023/10/21 06:48:26;;;;;;;29.80;13.80;;;;;;;17.90;100.00;99956.39;105857;1255;72639;-77
2023/10/21 06:50:53;;;;;;;24.40;12.90;;;;;;;17.97;100.00;99961.94;105990;1256;62097;-77
2023/10/21 06:53:19;;;;;;;19.70;11.80;;;;;;;18.04;100.00;99972.86;105828;1251;60221;-76
2023/10/21 06:55:46;;;;;;;20.90;14.00;;;;;;;18.11;100.00;99975.67;105828;1253;72931;-76
2023/10/21 06:58:13;;;;;;;23.00;13.40;;;;;;;18.20;100.00;99980.05;105829;1254;62295;-79
2023/10/21 07:00:42;;;;;;;20.70;12.80;;;;;;;18.29;100.00;99984.65;105821;1251;72859;-76
2023/10/21 07:03:11;;;;;;;25.00;14.30;;;;;;;18.35;100.00;99986.98;105875;1254;60462;-79
2023/10/21 07:05:40;;;;;;;18.50;12.10;;;;;;;18.44;100.00;99994.19;105916;1253;60202;-77
2023/10/21 07:08:08;;;;;;;20.90;13.90;;;;;;;18.53;100.00;99994.33;105869;1252;73023;-75
2023/10/21 07:10:35;;;;;;;20.90;13.70;;;;;;;18.60;100.00;99986.52;106022;1255;63847;-77
2023/10/21 07:13:02;;;;;;;20.80;12.40;;;;;;;18.70;100.00;99984.14;105932;1251;72789;-77
2023/10/21 07:15:31;;;;;;;16.60;12.60;;;;;;;18.78;100.00;99992.35;105790;1256;62083;-75
2023/10/21 07:17:58;;;;;;;22.70;11.10;;;;;;;18.89;100.00;99998.98;105832;1251;60209;-75
2023/10/21 07:20:26;;;;;;;20.90;10.80;;;;;;;19.04;100.00;100001.98;105886;1253;71841;-74
2023/10/21 07:22:53;;;;;;;18.30;12.30;;;;;;;19.23;100.00;100002.85;105911;1254;63770;-76
2023/10/21 07:25:23;;;;;;;19.00;11.20;;;;;;;19.44;100.00;100001.16;105934;1256;71359;-76
2023/10/21 07:27:50;;;;;;;20.90;11.40;;;;;;;19.62;100.00;100004.63;105924;1254;60409;-76
2023/10/21 07:30:17;;;;;;;15.60;11.10;;;;;;;19.81;100.00;100011.56;105941;1255;60222;-77
2023/10/21 07:32:44;;;;;;;14.70;10.70;;;;;;;19.96;100.00;100004.56;105905;1256;73293;-75
2023/10/21 07:35:11;;;;;;;18.00;10.00;;;;;;;20.08;100.00;100004.65;105940;1256;64115;-77
2023/10/21 07:37:38;;;;;;;15.00;9.60;;;;;;;20.17;100.00;100000.84;105797;1254;72702;-77
2023/10/21 07:40:09;;;;;;;15.70;9.90;;;;;;;20.27;100.00;100000.82;105821;1251;59676;-75
2023/10/21 07:42:36;;;;;;;22.80;11.80;;;;;;;20.36;100.00;100003.73;106017;1251;60204;-75
2023/10/21 07:45:06;;;;;;;16.30;10.30;;;;;;;20.42;100.00;100001.66;105837;1253;72878;-75
2023/10/21 07:47:36;;;;;;;16.30;11.60;;;;;;;20.46;100.00;100003.77;105962;1256;65069;-76
2023/10/21 07:50:07;;;;;;;16.30;10.50;;;;;;;20.54;100.00;100014.63;105876;1253;74332;-75
2023/10/21 07:52:35;;;;;;;20.70;9.70;;;;;;;20.67;100.00;100018.20;105931;1256;61806;-75
2023/10/21 07:55:03;;;;;;;15.10;8.70;;;;;;;20.92;100.00;100019.88;105947;1250;60322;-74
2023/10/21 07:57:33;;;;;;;13.90;9.40;;;;;;;21.33;100.00;100015.55;105795;1251;73087;-75
2023/10/21 08:00:00;;;;;;;19.20;9.20;;;;;;;21.87;100.00;100017.28;105804;1254;63764;-74
2023/10/21 08:02:28;;;;;;;21.20;9.50;;;;;;;22.42;100.00;100016.67;105858;1256;72749;-75
2023/10/21 08:04:56;;;;;;;10.80;8.80;;;;;;;22.96;100.00;100017.75;105938;1255;60072;-74
2023/10/21 08:07:23;;;;;;;19.50;9.50;;;;;;;23.52;100.00;100028.91;106052;1252;60433;-75
2023/10/21 08:09:51;;;;;;;15.80;9.30;;;;;;;24.01;100.00;100030.67;105896;1253;74942;-74
2023/10/21 08:12:18;;;;;;;17.30;8.60;;;;;;;24.40;100.00;100030.30;105899;1252;62357;-75
2023/10/21 08:14:45;;;;;;;14.60;8.50;;;;;;;24.79;100.00;100030.08;105876;1256;72480;-75
2023/10/21 08:17:12;;;;;;;11.90;7.80;;;;;;;25.14;100.00;100030.26;106016;1256;60784;-75
2023/10/21 08:19:39;;;;;;;16.00;9.10;;;;;;;25.51;100.00;100036.30;105849;1255;60267;-76
2023/10/21 08:22:06;;;;;;;18.20;9.20;;;;;;;25.89;100.00;100038.84;105945;1251;73405;-79
2023/10/21 08:24:33;;;;;;;14.70;8.00;;;;;;;26.26;100.00;100039.16;106011;1254;64117;-73
2023/10/21 08:27:02;;;;;;;11.70;8.20;;;;;;;26.51;100.00;100040.15;105986;1256;72575;-77
2023/10/21 08:29:31;;;;;;;12.70;6.90;;;;;;;26.74;100.00;100039.20;105805;1256;60445;-77
2023/10/21 08:31:58;;;;;;;15.20;7.20;;;;;;;27.00;100.00;100034.56;105908;1255;59623;-76
2023/10/21 08:34:25;;;;;;;12.10;6.50;;;;;;;27.21;100.00;100033.98;105936;1253;73053;-74
2023/10/21 08:36:52;;;;;;;13.60;7.60;;;;;;;27.41;100.00;100037.25;105943;1254;62352;-78
2023/10/21 08:39:20;;;;;;;16.60;8.20;;;;;;;27.59;99.18;100031.30;105995;1256;73059;-76
2023/10/21 08:41:47;;;;;;;13.80;7.90;;;;;;;27.82;95.41;100033.20;105861;1255;60792;-78
2023/10/21 08:44:14;;;;;;;14.90;7.30;;;;;;;27.98;89.98;100031.83;105773;1256;59572;-76
2023/10/21 08:46:41;;;;;;;12.40;7.00;;;;;;;28.06;87.52;100022.60;106043;1256;73190;-77
2023/10/21 08:49:09;;;;;;;13.70;6.70;;;;;;;28.21;85.83;100018.70;105849;1258;66028;-75
2023/10/21 08:51:36;;;;;;;9.80;6.30;;;;;;;28.44;83.55;100016.21;105807;1256;72691;-74
2023/10/21 08:54:03;;;;;;;13.30;6.70;;;;;;;28.67;80.97;100020.11;105835;1257;60263;-74
2023/10/21 08:56:32;;;;;;;8.90;6.90;;;;;;;28.88;79.56;100012.58;106026;1255;60380;-77
2023/10/21 08:59:00;;;;;;;14.10;7.20;;;;;;;29.12;77.46;100008.54;105899;1251;72971;-78
2023/10/21 09:01:28;;;;;;;11.30;6.30;;;;;;;29.40;74.40;100016.97;105840;1256;63851;-76
2023/10/21 09:03:54;;;;;;;12.90;7.30;;;;;;;29.64;71.59;100017.11;105824;1255;72443;-75
2023/10/21 09:06:22;;;;;;;12.50;6.80;;;;;;;29.85;69.43;100017.86;105843;1256;60119;-77
2023/10/21 09:08:49;;;;;;;13.90;7.40;;;;;;;30.08;66.32;100018.06;105845;1253;60197;-77
2023/10/21 09:11:18;;;;;;;12.40;6.90;;;;;;;30.26;64.72;100021.77;105846;1255;72926;-77
2023/10/21 09:13:45;;;;;;;11.30;6.40;;;;;;;30.42;62.83;100024.30;105795;1253;63795;-76
2023/10/21 09:16:22;;;;;;;13.40;7.50;;;;;;;30.53;62.44;100023.06;106020;1254;73962;-76
2023/10/21 09:19:03;;;;;;;17.50;6.30;;;;;;;30.72;60.27;100024.55;105880;1255;59606;-79
2023/10/21 09:21:32;;;;;;;13.70;6.00;;;;;;;30.92;58.80;100018.25;105998;1251;60336;-78
2023/10/21 09:24:09;;;;;;;14.80;5.30;;;;;;;31.13;58.18;100019.42;105923;1251;73100;-76
2023/10/21 09:26:38;;;;;;;12.10;5.60;;;;;;;31.35;55.15;100020.20;105832;1256;63865;-78
2023/10/21 09:29:13;;;;;;;13.40;6.20;;;;;;;31.45;53.35;100014.38;106274;1254;73157;-76
2023/10/21 09:31:52;;;;;;;11.70;5.50;;;;;;;31.55;53.07;100013.86;106287;1255;60264;-75
2023/10/21 09:34:24;;;;;;;16.00;6.00;;;;;;;31.70;51.65;100010.58;106249;1255;59630;-74
2023/10/21 09:36:55;;;;;;;16.10;6.00;;;;;;;31.83;51.35;100005.23;105862;1256;73012;-75
2023/10/21 09:39:23;;;;;;;10.50;5.00;;;;;;;31.83;50.50;100006.10;105904;1256;63939;-75
2023/10/21 09:41:50;;;;;;;10.60;5.80;;;;;;;31.70;50.04;100011.05;105835;1255;73119;-74
2023/10/21 09:44:19;;;;;;;10.60;5.50;;;;;;;31.49;50.91;100013.20;105866;1254;59717;-76
2023/10/21 09:46:46;;;;;;;14.80;6.40;;;;;;;31.21;52.09;100020.44;106010;1250;60076;-76
2023/10/21 09:49:14;;;;;;;11.30;5.10;;;;;;;30.98;52.93;100025.75;105979;1250;73073;-74
2023/10/21 09:51:46;;;;;;;14.70;6.40;;;;;;;30.72;53.57;100029.30;106075;1254;63691;-76
2023/10/21 09:54:15;;;;;;;10.80;5.20;;;;;;;30.43;54.82;100033.46;105932;1251;72663;-80
2023/10/21 09:56:44;;;;;;;10.30;6.00;;;;;;;30.17;56.27;100031.61;105927;1251;60631;-79
2023/10/21 09:59:14;;;;;;;11.90;5.90;;;;;;;30.01;57.64;100035.85;105912;1250;60787;-76
2023/10/21 10:01:42;;;;;;;12.00;6.30;;;;;;;29.89;58.98;100037.18;105930;1254;73838;-77
2023/10/21 10:04:10;;;;;;;14.80;5.70;;;;;;;29.74;60.30;100036.55;105798;1259;64056;-79
2023/10/21 10:06:37;;;;;;;15.80;5.80;;;;;;;29.60;61.30;100034.28;105884;1250;72657;-75
2023/10/21 10:09:06;;;;;;;12.40;5.50;;;;;;;29.58;61.61;100033.45;105894;1250;61458;-75
2023/10/21 10:11:38;;;;;;;14.60;7.00;;;;;;;29.71;62.00;100032.14;105848;1256;60466;-78
2023/10/21 10:14:05;;;;;;;13.70;7.10;;;;;;;29.84;61.69;100031.60;105815;1259;74411;-76
2023/10/21 10:16:37;;;;;;;10.50;4.80;;;;;;;30.04;59.48;100028.01;105869;1254;63680;-78
2023/10/21 10:19:05;;;;;;;8.70;4.80;;;;;;;30.25;57.94;100026.41;105753;1251;71492;-80
2023/10/21 10:21:33;;;;;;;11.90;5.70;;;;;;;30.43;56.64;100029.20;105767;1256;60530;-76
2023/10/21 10:24:02;;;;;;;12.30;5.50;;;;;;;30.64;56.07;100030.95;105854;1255;60307;-79
2023/10/21 10:26:38;;;;;;;10.10;5.10;;;;;;;30.80;54.84;100024.82;105738;1251;73865;-77
2023/10/21 10:29:25;;;;;;;13.40;5.80;;;;;;;30.87;53.38;100017.90;105944;1254;63801;-76
2023/10/21 10:32:15;;;;;;;11.30;5.60;;;;;;;30.82;52.81;100014.10;105968;1255;72434;-77
2023/10/21 10:34:56;;;;;;;12.80;5.70;;;;;;;30.72;53.12;100018.93;105821;1255;60435;-76
2023/10/21 10:37:31;;;;;;;16.50;6.40;;;;;;;30.61;54.10;100017.66;105952;1250;60451;-77
2023/10/21 10:39:58;;;;;;;12.80;6.10;;;;;;;30.49;54.41;100018.52;105802;1256;73774;-79
2023/10/21 10:42:30;;;;;;;14.00;5.40;;;;;;;30.39;54.46;100023.50;106034;1250;63901;-77
2023/10/21 10:44:58;;;;;;;13.20;5.70;;;;;;;30.25;54.77;100024.45;106035;1254;73447;-75
2023/10/21 10:47:26;;;;;;;11.20;5.90;;;;;;;30.02;55.15;100027.34;105894;1255;60540;-76
2023/10/21 10:50:00;;;;;;;14.00;4.90;;;;;;;29.78;56.68;100024.42;105920;1251;60443;-76
2023/10/21 10:52:35;;;;;;;10.20;6.20;;;;;;;29.55;57.76;100022.02;105896;1256;73811;-75
2023/10/21 10:55:03;;;;;;;14.30;5.40;;;;;;;29.34;58.87;100024.91;105798;1256;64012;-75
2023/10/21 10:57:30;;;;;;;12.40;5.80;;;;;;;29.15;59.80;100023.88;105886;1256;72353;-76
2023/10/21 10:59:57;;;;;;;15.10;5.60;;;;;;;28.99;61.74;100021.79;105914;1256;60566;-74
2023/10/21 11:02:28;;;;;;;11.60;5.00;;;;;;;28.82;63.01;100029.44;105834;1251;60454;-77
2023/10/21 11:04:56;;;;;;;15.30;5.10;;;;;;;28.66;62.92;100028.00;105961;1253;73859;-76
2023/10/21 11:07:23;;;;;;;13.90;5.90;;;;;;;28.48;63.51;100026.25;105868;1255;63786;-77
2023/10/21 11:10:00;;;;;;;11.10;5.40;;;;;;;28.28;65.45;100023.81;105840;1253;73386;-79